Time;durP1;ratioP1;P1;durP2;ratioP2;P2;SDS_P1;SDS_P2;PMS_P1;PMS_P2;Temp;Humidity;BMP_temperature;BMP_pressure;BME280_temperature;BME280_humidity;BME280_pressure;Samples;Min_cycle;Max_cycle;Signal;HPM_P1;HPM_P2
2021/11/01 00:00:23;;;;;;;30.50;26.87;;;;;22.60;98872.00;;;;2070915;28;20777;-55
2021/11/01 00:01:23;;;;;;;33.30;28.03;;;;;22.50;98864.00;;;;2071737;28;20222;-55
2021/11/01 00:02:24;;;;;;;29.97;26.33;;;;;22.50;98863.00;;;;2071578;28;20230;-55
2021/11/01 00:03:24;;;;;;;29.80;26.60;;;;;22.50;98864.00;;;;2065040;28;20225;-56
2021/11/01 00:04:24;;;;;;;28.80;25.20;;;;;22.50;98867.00;;;;2078896;28;20297;-54
2021/11/01 00:05:25;;;;;;;27.70;24.70;;;;;22.50;98868.00;;;;2073967;28;20225;-54
2021/11/01 00:06:26;;;;;;;28.00;25.03;;;;;22.50;98866.00;;;;2078176;28;20714;-55
2021/11/01 00:07:26;;;;;;;27.40;24.60;;;;;22.50;98868.00;;;;2079700;28;20849;-54
2021/11/01 00:08:27;;;;;;;27.17;24.50;;;;;22.50;98870.00;;;;2075878;28;20202;-55
2021/11/01 00:09:29;;;;;;;26.70;23.90;;;;;22.50;98871.00;;;;2070275;28;20253;-54
2021/11/01 00:10:29;;;;;;;27.20;24.10;;;;;22.50;98874.00;;;;2070848;28;20218;-55
2021/11/01 00:11:30;;;;;;;27.30;24.33;;;;;22.50;98868.00;;;;2071823;28;20214;-55
2021/11/01 00:12:30;;;;;;;25.40;21.80;;;;;22.50;98870.00;;;;2075216;28;20289;-56
2021/11/01 00:13:31;;;;;;;27.10;23.37;;;;;22.50;98872.00;;;;2071413;28;20222;-54
2021/11/01 00:14:32;;;;;;;27.10;24.20;;;;;22.50;98877.00;;;;2070183;28;20590;-55
2021/11/01 00:15:32;;;;;;;25.17;22.67;;;;;22.50;98865.00;;;;2071450;28;20884;-55
2021/11/01 00:16:33;;;;;;;24.50;21.90;;;;;22.50;98873.00;;;;2071388;28;20635;-55
2021/11/01 00:17:33;;;;;;;24.57;21.83;;;;;22.50;98874.00;;;;2071515;28;20214;-55
2021/11/01 00:18:34;;;;;;;25.27;21.67;;;;;22.50;98865.00;;;;2070968;28;20305;-54
2021/11/01 00:19:34;;;;;;;23.87;21.47;;;;;22.50;98859.00;;;;2070216;28;20713;-54
2021/11/01 00:20:34;;;;;;;23.13;20.60;;;;;22.50;98859.00;;;;2071372;28;20297;-54
2021/11/01 00:21:35;;;;;;;23.20;20.27;;;;;22.50;98863.00;;;;2071562;28;20232;-56
2021/11/01 00:22:36;;;;;;;25.40;22.70;;;;;22.50;98861.00;;;;2071488;28;20324;-56
2021/11/01 00:23:36;;;;;;;23.03;20.53;;;;;22.50;98862.00;;;;2071444;28;20747;-55
2021/11/01 00:24:36;;;;;;;22.40;20.00;;;;;22.50;98858.00;;;;2071301;28;20210;-55
2021/11/01 00:25:37;;;;;;;23.70;21.20;;;;;22.50;98858.00;;;;2071083;28;20281;-55
2021/11/01 00:26:37;;;;;;;22.70;19.90;;;;;22.50;98856.00;;;;2079656;28;20205;-55
2021/11/01 00:27:37;;;;;;;22.17;19.50;;;;;22.50;98855.00;;;;2079580;28;20209;-55
2021/11/01 00:28:38;;;;;;;21.83;19.53;;;;;22.50;98858.00;;;;2079432;28;20206;-55
2021/11/01 00:29:39;;;;;;;22.97;19.57;;;;;22.50;98859.00;;;;2077798;28;20210;-55
2021/11/01 00:30:39;;;;;;;20.10;18.10;;;;;22.50;98863.00;;;;2073018;28;20519;-55
2021/11/01 00:31:40;;;;;;;21.53;18.80;;;;;22.50;98857.00;;;;2071274;28;20721;-55
2021/11/01 00:32:41;;;;;;;21.50;18.87;;;;;22.50;98857.00;;;;2068818;28;20577;-54
2021/11/01 00:33:41;;;;;;;20.13;17.93;;;;;22.50;98855.00;;;;2071358;28;20213;-56
2021/11/01 00:34:42;;;;;;;19.50;17.40;;;;;22.50;98854.00;;;;2071359;28;20453;-55
2021/11/01 00:35:42;;;;;;;21.63;17.93;;;;;22.50;98851.00;;;;2070979;28;20698;-56
2021/11/01 00:36:42;;;;;;;17.90;16.00;;;;;22.50;98848.00;;;;2071436;28;20751;-54
2021/11/01 00:37:43;;;;;;;19.27;17.27;;;;;22.50;98853.00;;;;2066859;28;20214;-55
2021/11/01 00:38:44;;;;;;;20.87;16.30;;;;;22.50;98853.00;;;;2077845;28;20210;-55
2021/11/01 00:39:44;;;;;;;18.15;16.30;;;;;22.40;98853.00;;;;2076192;28;20211;-54
2021/11/01 00:40:45;;;;;;;20.57;17.97;;;;;22.40;98848.00;;;;2075328;28;20206;-55
2021/11/01 00:41:45;;;;;;;18.37;16.47;;;;;22.40;98849.00;;;;2072016;28;20211;-54
2021/11/01 00:42:45;;;;;;;18.50;16.50;;;;;22.30;98843.00;;;;2074479;28;20221;-56
2021/11/01 00:43:46;;;;;;;20.67;16.83;;;;;22.40;98838.00;;;;2070999;28;20302;-55
2021/11/01 00:44:46;;;;;;;19.20;16.40;;;;;22.40;98839.00;;;;2071336;28;20298;-54
2021/11/01 00:45:47;;;;;;;16.80;15.00;;;;;22.40;98837.00;;;;2071159;28;20285;-54
2021/11/01 00:46:47;;;;;;;17.27;14.40;;;;;22.40;98845.00;;;;2071130;28;20206;-54
2021/11/01 00:47:47;;;;;;;19.00;15.57;;;;;22.40;98835.00;;;;2071176;28;20739;-54
2021/11/01 00:48:49;;;;;;;17.20;15.13;;;;;22.40;98842.00;;;;2070442;28;20601;-56
2021/11/01 00:49:50;;;;;;;16.58;14.88;;;;;22.40;98844.00;;;;2071108;28;20297;-55
2021/11/01 00:50:51;;;;;;;20.17;15.43;;;;;22.40;98850.00;;;;2071207;28;20214;-55
2021/11/01 00:51:53;;;;;;;16.43;14.17;;;;;22.40;98852.00;;;;2071222;28;20218;-54
2021/11/01 00:52:55;;;;;;;16.40;14.52;;;;;22.40;98855.00;;;;2071124;28;20827;-54
2021/11/01 00:53:55;;;;;;;16.50;14.32;;;;;22.40;98848.00;;;;2071348;28;21633;-55
2021/11/01 00:55:00;;;;;;;15.77;14.07;;;;;22.40;98839.00;;;;2071250;28;20229;-55
2021/11/01 00:56:01;;;;;;;15.13;13.50;;;;;22.40;98844.00;;;;2070851;28;20280;-54
2021/11/01 00:57:02;;;;;;;16.20;13.97;;;;;22.40;98856.00;;;;2071151;28;20222;-56
2021/11/01 00:58:03;;;;;;;17.98;14.23;;;;;22.40;98856.00;;;;2075567;28;20547;-54
2021/11/01 00:59:04;;;;;;;14.60;13.10;;;;;22.30;98849.00;;;;2077892;28;20271;-54
2021/11/01 01:00:05;;;;;;;15.30;13.03;;;;;22.40;98850.00;;;;2079167;28;20379;-54
2021/11/01 01:01:05;;;;;;;16.20;13.80;;;;;22.40;98847.00;;;;2071864;28;20217;-55
2021/11/01 01:02:06;;;;;;;15.07;12.20;;;;;22.40;98844.00;;;;2076488;28;20973;-55
2021/11/01 01:03:07;;;;;;;14.10;12.10;;;;;22.40;98848.00;;;;2078688;28;20268;-54
2021/11/01 01:04:07;;;;;;;14.60;13.00;;;;;22.40;98847.00;;;;2074508;28;20218;-55
2021/11/01 01:05:07;;;;;;;13.73;12.30;;;;;22.40;98843.00;;;;2070837;28;20597;-57
2021/11/01 01:06:08;;;;;;;19.77;11.93;;;;;22.40;98842.00;;;;2070470;28;20219;-56
2021/11/01 01:07:08;;;;;;;14.33;11.60;;;;;22.40;98845.00;;;;2070446;28;20214;-56
2021/11/01 01:08:09;;;;;;;14.57;12.50;;;;;22.40;98845.00;;;;2071139;28;20334;-55
2021/11/01 01:09:09;;;;;;;13.30;11.50;;;;;22.40;98847.00;;;;2069722;28;20210;-54
2021/11/01 01:10:10;;;;;;;12.70;10.53;;;;;22.40;98844.00;;;;2074882;28;21012;-55
2021/11/01 01:11:10;;;;;;;14.00;12.03;;;;;22.40;98851.00;;;;2070718;28;20234;-54
2021/11/01 01:12:11;;;;;;;14.10;10.77;;;;;22.40;98849.00;;;;2073309;28;20214;-55
2021/11/01 01:13:12;;;;;;;14.02;11.77;;;;;22.40;98844.00;;;;2079134;28;20217;-55
2021/11/01 01:14:12;;;;;;;12.40;10.90;;;;;22.40;98844.00;;;;2079150;28;20324;-55
2021/11/01 01:15:21;;;;;;;12.20;10.60;;;;;22.30;98850.00;;;;2077741;28;20263;-56
2021/11/01 01:16:26;;;;;;;12.70;10.93;;;;;22.30;98838.00;;;;2070202;28;20246;-54
2021/11/01 01:17:28;;;;;;;12.40;11.15;;;;;22.40;98839.00;;;;2071084;28;20221;-54
2021/11/01 01:18:31;;;;;;;14.60;10.35;;;;;22.30;98834.00;;;;2069942;28;20277;-54
2021/11/01 01:19:44;;;;;;;12.93;10.25;;;;;22.30;98849.00;;;;2069260;28;20233;-55
2021/11/01 01:20:44;;;;;;;11.68;9.85;;;;;22.30;98852.00;;;;2070248;28;20297;-54
2021/11/01 01:23:03;;;;;;;10.90;9.57;;;;;22.30;98843.00;;;;2076957;28;20217;-55
2021/11/01 01:24:04;;;;;;;14.10;10.60;;;;;22.30;98840.00;;;;2078470;28;20218;-55
2021/11/01 01:25:14;;;;;;;13.37;10.03;;;;;22.30;98841.00;;;;2078560;28;20251;-54
2021/11/01 01:26:15;;;;;;;12.13;10.13;;;;;22.30;98844.00;;;;2073994;28;20225;-55
2021/11/01 01:27:16;;;;;;;11.03;9.30;;;;;22.30;98838.00;;;;2076932;28;20272;-55
2021/11/01 01:28:18;;;;;;;13.03;9.90;;;;;22.30;98846.00;;;;2078614;28;20210;-54
2021/11/01 01:29:18;;;;;;;10.68;9.48;;;;;22.30;98845.00;;;;2077351;28;20201;-54
2021/11/01 01:30:19;;;;;;;11.50;9.20;;;;;22.30;98804.00;;;;2078475;28;20640;-53
2021/11/01 01:31:20;;;;;;;13.20;10.05;;;;;22.30;98845.00;;;;2078181;28;20213;-55
2021/11/01 01:32:21;;;;;;;10.70;8.67;;;;;22.30;98836.00;;;;2078310;28;20213;-54
2021/11/01 01:33:21;;;;;;;9.83;8.83;;;;;22.30;98792.00;;;;2078454;28;21068;-54
2021/11/01 01:34:21;;;;;;;11.43;8.80;;;;;22.30;98847.00;;;;2078630;28;20686;-55
2021/11/01 01:35:22;;;;;;;10.53;8.80;;;;;22.30;98853.00;;;;2078249;28;20222;-55
2021/11/01 01:36:22;;;;;;;9.50;8.43;;;;;22.30;98845.00;;;;2078494;28;20221;-54
2021/11/01 01:37:23;;;;;;;10.87;8.47;;;;;22.30;98846.00;;;;2078278;28;20221;-54
2021/11/01 01:38:23;;;;;;;11.90;9.43;;;;;22.30;98844.00;;;;2078349;28;20563;-55
2021/11/01 01:39:23;;;;;;;10.73;9.33;;;;;22.30;98853.00;;;;2077209;28;20566;-56
2021/11/01 01:40:24;;;;;;;9.70;8.57;;;;;22.30;98848.00;;;;2073971;28;20214;-55
2021/11/01 01:41:25;;;;;;;10.30;8.77;;;;;22.30;98846.00;;;;2073430;28;20205;-55
2021/11/01 01:42:26;;;;;;;11.07;8.50;;;;;22.30;98836.00;;;;2073836;28;20233;-55
2021/11/01 01:43:26;;;;;;;10.13;8.27;;;;;22.30;98841.00;;;;2069853;28;20202;-54
2021/11/01 01:44:26;;;;;;;12.60;8.20;;;;;22.30;98840.00;;;;2070481;28;20686;-54
2021/11/01 01:45:27;;;;;;;12.33;8.23;;;;;22.30;98841.00;;;;2070108;28;20594;-54
2021/11/01 01:46:28;;;;;;;9.13;7.80;;;;;22.30;98836.00;;;;2070138;28;20206;-54
2021/11/01 01:47:28;;;;;;;11.27;8.25;;;;;22.30;98837.00;;;;2070153;28;20644;-54
2021/11/01 01:48:28;;;;;;;11.70;8.00;;;;;22.30;98836.00;;;;2071097;28;20455;-55
2021/11/01 01:49:29;;;;;;;10.47;7.63;;;;;22.30;98833.00;;;;2077670;28;20720;-53
2021/11/01 01:50:29;;;;;;;9.63;7.13;;;;;22.30;98831.00;;;;2078920;28;20309;-55
2021/11/01 01:51:30;;;;;;;8.83;7.43;;;;;22.30;98826.00;;;;2077153;28;20217;-55
2021/11/01 01:52:30;;;;;;;11.00;8.13;;;;;22.30;98833.00;;;;2070668;28;20563;-56
2021/11/01 01:53:31;;;;;;;9.30;7.50;;;;;22.20;98826.00;;;;2070853;28;20229;-54
2021/11/01 01:54:31;;;;;;;9.50;7.50;;;;;22.30;98827.00;;;;2070889;28;20249;-53
2021/11/01 01:55:32;;;;;;;7.73;6.53;;;;;22.30;98820.00;;;;2070646;28;20727;-55
2021/11/01 01:56:33;;;;;;;8.95;7.00;;;;;22.20;98826.00;;;;2062039;28;20996;-54
2021/11/01 01:57:33;;;;;;;7.67;6.67;;;;;22.20;98830.00;;;;2061980;28;20222;-56
2021/11/01 01:58:41;;;;;;;9.53;7.00;;;;;22.30;98826.00;;;;2068857;28;20699;-56
2021/11/01 01:59:43;;;;;;;9.13;7.45;;;;;22.30;98825.00;;;;2068823;28;20260;-56
2021/11/01 02:01:03;;;;;;;9.85;6.60;;;;;22.30;98825.00;;;;2077196;28;20236;-55
2021/11/01 02:02:04;;;;;;;8.80;6.35;;;;;22.30;98829.00;;;;2078457;28;20541;-55
2021/11/01 02:03:04;;;;;;;9.50;6.80;;;;;22.30;98832.00;;;;2078661;28;20240;-54
2021/11/01 02:04:04;;;;;;;7.87;7.07;;;;;22.20;98827.00;;;;2075185;28;20209;-56
2021/11/01 02:05:06;;;;;;;9.30;6.60;;;;;22.20;98827.00;;;;2086322;28;20209;-55
2021/11/01 02:06:10;;;;;;;7.10;6.10;;;;;22.20;98824.00;;;;2080078;28;20209;-53
2021/11/01 02:07:34;;;;;;;8.32;6.53;;;;;22.20;98823.00;;;;2072517;28;20218;-55
2021/11/01 02:08:45;;;;;;;7.60;6.25;;;;;22.20;98831.00;;;;2069782;28;20292;-55
2021/11/01 02:10:05;;;;;;;8.10;5.93;;;;;22.20;98826.00;;;;2071327;28;20218;-54
2021/11/01 02:11:09;;;;;;;10.60;6.35;;;;;22.20;98824.00;;;;2075423;28;20221;-55
2021/11/01 02:12:10;;;;;;;7.82;5.97;;;;;22.20;98827.00;;;;2073740;28;20228;-54
2021/11/01 02:13:19;;;;;;;9.20;6.43;;;;;22.20;98832.00;;;;2062501;28;20402;-55
2021/11/01 02:14:20;;;;;;;7.43;5.90;;;;;22.20;98828.00;;;;2074576;28;20224;-55
2021/11/01 02:15:40;;;;;;;8.80;5.70;;;;;22.20;98821.00;;;;2070075;28;20257;-55
2021/11/01 02:16:41;;;;;;;7.40;6.13;;;;;22.20;98826.00;;;;2078361;28;20213;-55
2021/11/01 02:17:41;;;;;;;7.77;5.70;;;;;22.20;98823.00;;;;2068793;28;20355;-55
2021/11/01 02:18:48;;;;;;;8.47;6.30;;;;;22.20;98819.00;;;;2069464;28;20214;-55
2021/11/01 02:19:49;;;;;;;6.82;5.35;;;;;22.20;98818.00;;;;2077467;28;20259;-55
2021/11/01 02:20:58;;;;;;;7.00;5.57;;;;;22.20;98825.00;;;;2078127;28;20210;-56
2021/11/01 02:22:00;;;;;;;7.43;5.32;;;;;22.20;98826.00;;;;2078540;28;20456;-54
2021/11/01 02:23:23;;;;;;;8.77;6.10;;;;;22.20;98824.00;;;;2078001;28;20232;-54
2021/11/01 02:24:30;;;;;;;7.95;5.57;;;;;22.20;98817.00;;;;2077915;28;20225;-55
2021/11/01 02:26:00;;;;;;;7.25;5.13;;;;;22.20;98813.00;;;;2077959;28;20263;-54
2021/11/01 02:27:00;;;;;;;7.07;5.10;;;;;22.20;98818.00;;;;2077604;28;20264;-53
2021/11/01 02:28:01;;;;;;;8.80;6.07;;;;;22.20;98819.00;;;;2069865;28;20233;-54
2021/11/01 02:29:01;;;;;;;6.73;5.17;;;;;22.20;98826.00;;;;2068162;28;20264;-55
2021/11/01 02:30:02;;;;;;;7.00;5.00;;;;;22.20;98830.00;;;;2077795;28;20660;-55
2021/11/01 02:31:04;;;;;;;7.03;5.20;;;;;22.20;98826.00;;;;2077437;28;20279;-55
2021/11/01 02:32:04;;;;;;;7.53;5.82;;;;;22.20;98824.00;;;;2078001;28;20968;-54
2021/11/01 02:33:06;;;;;;;5.70;4.90;;;;;22.20;98819.00;;;;2078082;28;20232;-54
2021/11/01 02:34:06;;;;;;;5.68;4.55;;;;;22.20;98811.00;;;;2078704;28;20452;-55
2021/11/01 02:35:07;;;;;;;6.93;5.00;;;;;22.20;98813.00;;;;2078478;28;20217;-53
2021/11/01 02:36:07;;;;;;;6.00;4.60;;;;;22.20;98820.00;;;;2068287;28;20210;-53
2021/11/01 02:37:08;;;;;;;6.93;4.90;;;;;22.20;98821.00;;;;2069963;28;20213;-55
2021/11/01 02:38:11;;;;;;;9.33;5.13;;;;;22.20;98816.00;;;;2078024;28;20581;-55
2021/11/01 02:39:11;;;;;;;7.45;4.65;;;;;22.10;98813.00;;;;2067607;28;20206;-55
2021/11/01 02:40:12;;;;;;;6.63;4.43;;;;;22.20;98822.00;;;;2074318;28;21170;-55
2021/11/01 02:41:41;;;;;;;5.60;4.30;;;;;22.20;98817.00;;;;2072632;28;20218;-55
2021/11/01 02:42:41;;;;;;;8.30;5.22;;;;;22.20;98763.00;;;;2072376;28;20226;-55
2021/11/01 02:43:42;;;;;;;5.30;4.80;;;;;22.20;98808.00;;;;2077227;28;20597;-55
2021/11/01 02:44:55;;;;;;;4.80;4.30;;;;;22.20;98812.00;;;;2078076;28;20942;-55
2021/11/01 02:45:56;;;;;;;5.05;4.40;;;;;22.20;98813.00;;;;2078122;28;20708;-54
2021/11/01 02:46:57;;;;;;;4.83;4.20;;;;;22.10;98814.00;;;;2078404;28;20220;-54
2021/11/01 02:47:57;;;;;;;4.87;4.33;;;;;22.20;98812.00;;;;2078436;28;20300;-54
2021/11/01 02:48:58;;;;;;;6.60;4.90;;;;;22.20;98809.00;;;;2077551;28;20232;-55
2021/11/01 02:49:59;;;;;;;5.43;4.57;;;;;22.20;98801.00;;;;2078074;28;20209;-55
2021/11/01 02:51:00;;;;;;;6.03;3.97;;;;;22.20;98794.00;;;;2078509;28;20209;-54
2021/11/01 02:52:00;;;;;;;5.00;3.90;;;;;22.20;98805.00;;;;2077812;28;20213;-55
2021/11/01 02:53:01;;;;;;;6.17;4.20;;;;;22.20;98802.00;;;;2076584;28;20216;-55
2021/11/01 02:54:02;;;;;;;7.80;4.37;;;;;22.20;98812.00;;;;2077711;28;20216;-54
2021/11/01 02:55:05;;;;;;;4.75;3.95;;;;;22.10;98796.00;;;;2078583;28;20231;-55
2021/11/01 02:56:08;;;;;;;4.85;3.97;;;;;22.20;98798.00;;;;2079986;28;20336;-55
2021/11/01 02:57:08;;;;;;;6.43;4.22;;;;;22.10;98798.00;;;;2078615;28;20319;-55
2021/11/01 02:58:09;;;;;;;6.17;4.40;;;;;22.10;98805.00;;;;2080017;28;20211;-54
2021/11/01 02:59:09;;;;;;;5.60;4.00;;;;;22.10;98800.00;;;;2078689;28;20205;-54
2021/11/01 03:00:10;;;;;;;5.27;4.13;;;;;22.10;98786.00;;;;2080044;28;20296;-54
2021/11/01 03:01:15;;;;;;;5.78;4.00;;;;;22.20;98800.00;;;;2079512;28;20205;-55
2021/11/01 03:02:16;;;;;;;5.13;3.80;;;;;22.10;98794.00;;;;2079671;28;20205;-54
2021/11/01 03:03:17;;;;;;;4.80;3.55;;;;;22.10;98798.00;;;;2080144;28;20296;-55
2021/11/01 03:04:17;;;;;;;4.73;3.70;;;;;22.20;98801.00;;;;2079931;28;20580;-54
2021/11/01 03:05:20;;;;;;;3.80;3.40;;;;;22.10;98801.00;;;;2080094;28;20224;-55
2021/11/01 03:06:24;;;;;;;4.00;3.05;;;;;22.10;98785.00;;;;2073035;28;20683;-54
2021/11/01 03:07:25;;;;;;;5.47;3.60;;;;;22.10;98775.00;;;;2071345;28;20229;-55
2021/11/01 03:08:26;;;;;;;4.67;3.73;;;;;22.10;98786.00;;;;2063172;28;20301;-54
2021/11/01 03:09:28;;;;;;;6.72;3.67;;;;;22.10;98795.00;;;;2062246;28;20294;-54
2021/11/01 03:10:29;;;;;;;5.45;4.30;;;;;22.10;98783.00;;;;2070923;28;20237;-55
2021/11/01 03:11:29;;;;;;;5.40;3.73;;;;;22.10;98776.00;;;;2074823;28;20225;-55
2021/11/01 03:12:29;;;;;;;5.67;4.17;;;;;22.10;98778.00;;;;2074135;28;20210;-56
2021/11/01 03:13:32;;;;;;;4.87;3.40;;;;;22.10;98778.00;;;;2071190;28;20237;-54
2021/11/01 03:14:38;;;;;;;6.40;3.92;;;;;22.10;98779.00;;;;2071530;28;20221;-55
2021/11/01 03:15:49;;;;;;;4.93;3.13;;;;;22.10;98772.00;;;;2070914;28;20233;-55
2021/11/01 03:16:50;;;;;;;5.40;3.20;;;;;22.10;98769.00;;;;2071505;28;20292;-54
2021/11/01 03:18:04;;;;;;;4.47;3.40;;;;;22.10;98779.00;;;;2071398;28;20210;-55
2021/11/01 03:19:10;;;;;;;4.85;3.33;;;;;22.10;98778.00;;;;2073612;28;20681;-54
2021/11/01 03:20:11;;;;;;;4.40;2.92;;;;;22.10;98772.00;;;;2062804;28;20798;-55
2021/11/01 03:21:15;;;;;;;4.50;3.37;;;;;22.10;98779.00;;;;2063828;28;20223;-54
2021/11/01 03:22:15;;;;;;;4.28;3.15;;;;;22.10;98777.00;;;;2078924;28;20455;-55
2021/11/01 03:23:26;;;;;;;5.50;3.50;;;;;22.10;98780.00;;;;2063567;28;20289;-54
2021/11/01 03:24:29;;;;;;;5.43;3.25;;;;;22.10;98783.00;;;;2063760;28;20321;-54
2021/11/01 03:25:33;;;;;;;4.70;3.30;;;;;22.10;98782.00;;;;2071209;28;20226;-55
2021/11/01 03:26:34;;;;;;;5.25;3.38;;;;;22.10;98792.00;;;;2070620;28;20252;-55
2021/11/01 03:27:35;;;;;;;7.70;3.40;;;;;22.10;98784.00;;;;2071851;28;20302;-55
2021/11/01 03:28:36;;;;;;;4.40;3.30;;;;;22.10;98786.00;;;;2071832;28;20284;-55
2021/11/01 03:29:36;;;;;;;4.77;3.40;;;;;22.10;98784.00;;;;2069915;28;20217;-55
2021/11/01 03:30:36;;;;;;;5.27;3.20;;;;;22.10;98785.00;;;;2069387;28;20214;-55
2021/11/01 03:31:38;;;;;;;4.67;3.33;;;;;22.10;98787.00;;;;2079254;28;20244;-54
2021/11/01 03:32:38;;;;;;;5.28;2.83;;;;;22.10;98783.00;;;;2079332;28;20221;-54
2021/11/01 03:33:39;;;;;;;3.80;2.90;;;;;22.10;98777.00;;;;2071167;28;20642;-54
2021/11/01 03:34:41;;;;;;;4.50;3.00;;;;;22.10;98788.00;;;;2071174;28;20202;-55
2021/11/01 03:35:42;;;;;;;5.15;2.85;;;;;22.10;98782.00;;;;2086881;28;20205;-55
2021/11/01 03:36:43;;;;;;;4.35;3.13;;;;;22.10;98799.00;;;;2079197;28;20296;-55
2021/11/01 03:37:44;;;;;;;4.80;3.00;;;;;22.10;98799.00;;;;2071152;28;20214;-55
2021/11/01 03:38:45;;;;;;;3.47;2.70;;;;;22.10;98809.00;;;;2069858;28;20232;-54
2021/11/01 03:39:47;;;;;;;4.10;3.00;;;;;21.90;98793.00;;;;2078838;28;20279;-54
2021/11/01 03:40:48;;;;;;;5.47;3.25;;;;;22.10;98800.00;;;;2074623;28;20221;-54
2021/11/01 03:41:48;;;;;;;5.83;3.67;;;;;22.10;98794.00;;;;2066384;28;20199;-55
2021/11/01 03:42:52;;;;;;;4.20;2.87;;;;;22.10;98805.00;;;;2074163;28;20328;-54
2021/11/01 03:44:03;;;;;;;3.90;2.58;;;;;22.10;98808.00;;;;2071226;28;20726;-55
2021/11/01 03:45:08;;;;;;;4.00;2.70;;;;;22.00;98807.00;;;;2071248;28;20218;-56
2021/11/01 03:46:09;;;;;;;5.57;3.47;;;;;22.10;98812.00;;;;2062766;28;20320;-54
2021/11/01 03:47:12;;;;;;;4.85;2.15;;;;;22.00;98815.00;;;;2063890;28;20215;-55
2021/11/01 03:48:16;;;;;;;3.47;2.80;;;;;22.00;98815.00;;;;2071289;28;20210;-55
2021/11/01 03:49:17;;;;;;;5.03;2.60;;;;;22.00;98808.00;;;;2062507;28;20294;-53
2021/11/01 03:52:48;;;;;;;5.05;3.08;;;;;22.10;98797.00;;;;2075277;28;20209;-54
2021/11/01 03:53:48;;;;;;;6.45;2.75;;;;;22.00;98804.00;;;;2078256;28;20244;-55
2021/11/01 03:54:51;;;;;;;3.50;2.80;;;;;22.10;98812.00;;;;2071175;28;20796;-54
2021/11/01 03:55:51;;;;;;;3.67;2.30;;;;;22.10;98800.00;;;;2070625;28;20230;-54
2021/11/01 03:56:52;;;;;;;6.00;3.13;;;;;22.10;98793.00;;;;2070997;28;20780;-54
2021/11/01 03:57:52;;;;;;;4.93;2.63;;;;;22.00;98807.00;;;;2071087;28;20203;-55
2021/11/01 03:58:53;;;;;;;3.60;2.50;;;;;22.10;98818.00;;;;2061719;28;20218;-55
2021/11/01 03:59:53;;;;;;;3.40;2.20;;;;;22.00;98816.00;;;;2070639;28;20271;-55
2021/11/01 04:00:54;;;;;;;3.60;2.00;;;;;22.00;98818.00;;;;2079074;28;20387;-55
2021/11/01 04:01:56;;;;;;;3.70;2.50;;;;;22.00;98808.00;;;;2079546;28;20256;-54
2021/11/01 04:02:56;;;;;;;3.70;2.33;;;;;22.00;98825.00;;;;2074325;28;20281;-54
2021/11/01 04:03:58;;;;;;;3.57;2.57;;;;;22.00;98813.00;;;;2073530;28;20218;-55
2021/11/01 04:05:00;;;;;;;3.50;2.65;;;;;22.00;98811.00;;;;2071912;28;20229;-54
2021/11/01 04:06:03;;;;;;;3.55;2.20;;;;;22.00;98805.00;;;;2070960;28;20348;-55
2021/11/01 04:07:03;;;;;;;4.35;2.10;;;;;22.00;98804.00;;;;2071685;28;20214;-55
2021/11/01 04:08:04;;;;;;;4.33;2.53;;;;;22.00;98799.00;;;;2071556;28;20752;-55
2021/11/01 04:09:06;;;;;;;3.87;2.27;;;;;22.00;98809.00;;;;2069842;28;20675;-56
2021/11/01 04:10:08;;;;;;;5.40;2.70;;;;;22.00;98809.00;;;;2070756;28;20218;-55
2021/11/01 04:11:10;;;;;;;3.13;2.10;;;;;22.00;98803.00;;;;2071054;28;20713;-54
2021/11/01 04:12:10;;;;;;;3.65;2.45;;;;;22.00;98807.00;;;;2070931;28;20220;-54
2021/11/01 04:13:11;;;;;;;2.73;2.00;;;;;22.00;98811.00;;;;2078984;28;20217;-56
2021/11/01 04:14:16;;;;;;;4.73;2.70;;;;;22.00;98816.00;;;;2079782;28;20535;-54
2021/11/01 04:15:42;;;;;;;3.05;2.28;;;;;22.00;98810.00;;;;2079835;28;20202;-54
2021/11/01 04:16:45;;;;;;;3.85;2.10;;;;;22.00;98817.00;;;;2073864;28;20226;-54
2021/11/01 04:17:56;;;;;;;4.85;2.25;;;;;22.00;98809.00;;;;2071293;28;21225;-56
2021/11/01 04:20:04;;;;;;;3.63;2.30;;;;;22.00;98815.00;;;;2071585;28;20309;-54
2021/11/01 04:21:09;;;;;;;2.60;2.05;;;;;22.00;98816.00;;;;2071389;28;20214;-55
2021/11/01 04:22:09;;;;;;;3.30;2.30;;;;;22.00;98819.00;;;;2063212;28;20218;-55
2021/11/01 04:23:11;;;;;;;5.50;2.10;;;;;22.00;98803.00;;;;2071497;28;20210;-54
2021/11/01 04:24:13;;;;;;;4.25;2.38;;;;;22.00;98816.00;;;;2071442;28;20761;-55
2021/11/01 04:25:13;;;;;;;2.95;1.92;;;;;22.00;98815.00;;;;2071135;28;20891;-55
2021/11/01 04:26:16;;;;;;;3.40;2.00;;;;;22.00;98808.00;;;;2071326;28;20254;-55
2021/11/01 04:27:16;;;;;;;3.70;2.30;;;;;22.00;98814.00;;;;2071630;28;20248;-54
2021/11/01 04:28:16;;;;;;;4.77;2.53;;;;;22.00;98814.00;;;;2071453;28;20282;-55
2021/11/01 04:29:17;;;;;;;3.50;2.10;;;;;22.00;98817.00;;;;2070161;28;20207;-54
2021/11/01 04:30:18;;;;;;;3.47;2.13;;;;;22.00;98813.00;;;;2071462;28;20233;-55
2021/11/01 04:31:40;;;;;;;2.30;1.80;;;;;22.00;98813.00;;;;2071575;28;20214;-55
2021/11/01 04:32:40;;;;;;;2.60;1.83;;;;;22.00;98815.00;;;;2071735;28;20275;-54
2021/11/01 04:33:42;;;;;;;3.00;1.80;;;;;22.00;98816.00;;;;2072992;28;20610;-55
2021/11/01 04:34:49;;;;;;;3.58;1.90;;;;;22.00;98816.00;;;;2073218;28;20305;-54
2021/11/01 04:35:49;;;;;;;3.47;1.90;;;;;22.00;98808.00;;;;2071158;28;20273;-55
2021/11/01 04:36:52;;;;;;;3.30;1.70;;;;;22.00;98809.00;;;;2071600;28;20269;-55
2021/11/01 04:38:05;;;;;;;2.95;1.88;;;;;22.00;98818.00;;;;2071485;28;20293;-55
2021/11/01 04:41:30;;;;;;;2.50;1.67;;;;;22.00;98812.00;;;;2078586;28;20558;-54
2021/11/01 04:53:01;;;;;;;2.58;1.60;;;;;22.00;98806.00;;;;2079360;28;20682;-55
2021/11/01 04:54:02;;;;;;;3.40;1.90;;;;;21.90;98802.00;;;;2075517;28;20222;-53
2021/11/01 04:55:05;;;;;;;3.10;2.17;;;;;21.90;98803.00;;;;2070518;28;20206;-55
2021/11/01 04:56:05;;;;;;;2.75;1.65;;;;;21.90;98801.00;;;;2070183;28;20655;-54
2021/11/01 04:57:06;;;;;;;2.43;1.77;;;;;21.90;98805.00;;;;2069692;28;20297;-54
2021/11/01 04:58:06;;;;;;;2.90;1.90;;;;;21.90;98806.00;;;;2070190;28;20217;-53
2021/11/01 04:59:07;;;;;;;4.20;1.90;;;;;21.90;98807.00;;;;2069580;28;20218;-55
2021/11/01 05:00:09;;;;;;;2.30;1.77;;;;;21.90;98808.00;;;;2070691;28;20218;-54
2021/11/01 05:01:09;;;;;;;2.30;1.60;;;;;21.90;98805.00;;;;2071104;28;20225;-54
2021/11/01 05:02:10;;;;;;;4.13;1.90;;;;;21.90;98804.00;;;;2074648;28;20885;-54
2021/11/01 05:03:27;;;;;;;3.60;1.93;;;;;21.90;98817.00;;;;2073293;28;20237;-55
2021/11/01 05:04:30;;;;;;;3.10;1.58;;;;;21.90;98803.00;;;;2072826;28;20210;-54
2021/11/01 05:05:30;;;;;;;2.90;1.50;;;;;21.90;98808.00;;;;2071146;28;20235;-55
2021/11/01 05:06:31;;;;;;;4.50;1.97;;;;;21.90;98808.00;;;;2071160;28;20225;-55
2021/11/01 05:07:32;;;;;;;4.23;2.13;;;;;21.90;98805.00;;;;2070360;28;20217;-55
2021/11/01 05:08:39;;;;;;;3.50;2.03;;;;;21.90;98820.00;;;;2070347;28;20218;-54
2021/11/01 05:10:42;;;;;;;2.53;1.80;;;;;21.90;98811.00;;;;2070604;28;20206;-54
2021/11/01 05:12:51;;;;;;;2.75;1.52;;;;;21.90;98819.00;;;;2070290;28;20305;-54
2021/11/01 05:13:52;;;;;;;3.10;1.70;;;;;21.90;98813.00;;;;2070810;28;20721;-53
2021/11/01 05:14:59;;;;;;;3.57;1.90;;;;;21.90;98825.00;;;;2071072;28;20624;-55
2021/11/01 05:16:08;;;;;;;2.80;1.80;;;;;21.90;98818.00;;;;2071044;28;20237;-55
2021/11/01 05:19:31;;;;;;;3.25;1.30;;;;;21.90;98823.00;;;;2074623;28;20566;-54
2021/11/01 05:22:38;;;;;;;2.30;1.63;;;;;21.90;98835.00;;;;2079105;28;20232;-55
2021/11/01 05:23:43;;;;;;;3.28;1.60;;;;;21.90;98820.00;;;;2079195;28;20221;-54
2021/11/01 05:24:50;;;;;;;2.83;1.60;;;;;21.90;98821.00;;;;2078899;28;20209;-55
2021/11/01 05:25:56;;;;;;;2.20;1.60;;;;;21.90;98821.00;;;;2078825;28;20244;-55
2021/11/01 05:29:29;;;;;;;4.82;1.92;;;;;21.90;98811.00;;;;2077683;28;20288;-54
2021/11/01 05:30:47;;;;;;;2.63;1.33;;;;;21.90;98828.00;;;;2078525;28;20214;-54
2021/11/01 05:31:55;;;;;;;4.18;1.80;;;;;21.90;98826.00;;;;2078344;28;20206;-54
2021/11/01 05:33:02;;;;;;;2.55;1.58;;;;;21.90;98818.00;;;;2064519;28;20214;-55
2021/11/01 05:34:11;;;;;;;2.58;1.45;;;;;21.90;98830.00;;;;2072491;28;21055;-55
2021/11/01 05:35:11;;;;;;;2.97;1.70;;;;;21.90;98821.00;;;;2070869;28;20296;-54
2021/11/01 05:36:11;;;;;;;3.10;1.40;;;;;21.80;98821.00;;;;2071018;28;20245;-55
2021/11/01 05:37:12;;;;;;;2.53;1.33;;;;;21.80;98821.00;;;;2068978;28;20218;-54